sensor_id;sensor_type;location;lat;lon;timestamp;pressure;altitude;pressure_sealevel;temperature;humidity
70323;BME280;57735;56.264;43.898;2022-11-28T00:00:19;103257.47;;;-4.73;72.36
70323;BME280;57735;56.264;43.898;2022-11-28T00:02:50;103267.00;;;-4.69;72.56
70323;BME280;57735;56.264;43.898;2022-11-28T00:05:21;103260.97;;;-4.66;72.33
70323;BME280;57735;56.264;43.898;2022-11-28T00:07:55;103261.03;;;-4.62;72.05
70323;BME280;57735;56.264;43.898;2022-11-28T00:10:26;103253.22;;;-4.62;71.80
70323;BME280;57735;56.264;43.898;2022-11-28T00:13:00;103260.97;;;-4.69;71.95
70323;BME280;57735;56.264;43.898;2022-11-28T00:15:30;103266.16;;;-4.72;71.81
70323;BME280;57735;56.264;43.898;2022-11-28T00:18:01;103257.47;;;-4.68;72.44
70323;BME280;57735;56.264;43.898;2022-11-28T00:20:32;103253.16;;;-4.66;72.33
70323;BME280;57735;56.264;43.898;2022-11-28T00:23:05;103261.00;;;-4.63;72.08
70323;BME280;57735;56.264;43.898;2022-11-28T00:25:36;103261.84;;;-4.66;71.50
70323;BME280;57735;56.264;43.898;2022-11-28T00:28:10;103253.13;;;-4.72;71.49
70323;BME280;57735;56.264;43.898;2022-11-28T00:30:41;103254.88;;;-4.71;71.66
70323;BME280;57735;56.264;43.898;2022-11-28T00:33:11;103253.13;;;-4.74;71.32
70323;BME280;57735;56.264;43.898;2022-11-28T00:35:42;103261.81;;;-4.72;71.89
70323;BME280;57735;56.264;43.898;2022-11-28T00:38:13;103268.75;;;-4.71;71.59
70323;BME280;57735;56.264;43.898;2022-11-28T00:40:44;103251.38;;;-4.75;71.03
70323;BME280;57735;56.264;43.898;2022-11-28T00:43:15;103255.63;;;-4.83;71.38
70323;BME280;57735;56.264;43.898;2022-11-28T00:45:45;103255.53;;;-4.92;71.15
70323;BME280;57735;56.264;43.898;2022-11-28T00:48:16;103256.41;;;-4.92;71.35
70323;BME280;57735;56.264;43.898;2022-11-28T00:53:39;103258.03;;;-5.01;70.55
70323;BME280;57735;56.264;43.898;2022-11-28T00:56:14;103259.75;;;-5.05;70.80
70323;BME280;57735;56.264;43.898;2022-11-28T00:58:48;103252.78;;;-5.07;70.71
70323;BME280;57735;56.264;43.898;2022-11-28T01:01:30;103257.09;;;-5.09;70.84
70323;BME280;57735;56.264;43.898;2022-11-28T01:04:07;103254.50;;;-5.09;71.51
70323;BME280;57735;56.264;43.898;2022-11-28T01:06:42;103258.88;;;-5.05;71.35
70323;BME280;57735;56.264;43.898;2022-11-28T01:09:17;103256.28;;;-5.05;70.99
70323;BME280;57735;56.264;43.898;2022-11-28T01:11:50;103258.88;;;-5.05;71.02
70323;BME280;57735;56.264;43.898;2022-11-28T01:14:23;103256.19;;;-5.11;71.08
70323;BME280;57735;56.264;43.898;2022-11-28T01:16:54;103257.06;;;-5.12;71.29
70323;BME280;57735;56.264;43.898;2022-11-28T01:19:25;103255.34;;;-5.10;70.87
70323;BME280;57735;56.264;43.898;2022-11-28T01:21:56;103257.16;;;-5.03;71.26
70323;BME280;57735;56.264;43.898;2022-11-28T01:24:26;103262.34;;;-5.06;70.38
70323;BME280;57735;56.264;43.898;2022-11-28T01:26:57;103266.69;;;-5.05;70.75
70323;BME280;57735;56.264;43.898;2022-11-28T01:29:30;103264.06;;;-5.07;70.58
70323;BME280;57735;56.264;43.898;2022-11-28T01:32:01;103264.00;;;-5.11;70.29
70323;BME280;57735;56.264;43.898;2022-11-28T01:34:34;103255.28;;;-5.15;70.38
70323;BME280;57735;56.264;43.898;2022-11-28T01:37:05;103258.75;;;-5.14;70.66
70323;BME280;57735;56.264;43.898;2022-11-28T01:39:36;103263.91;;;-5.17;70.11
70323;BME280;57735;56.264;43.898;2022-11-28T01:42:15;103261.34;;;-5.16;70.10
70323;BME280;57735;56.264;43.898;2022-11-28T01:47:29;103263.09;;;-5.13;70.03
70323;BME280;57735;56.264;43.898;2022-11-28T01:50:02;103263.06;;;-5.16;69.57
70323;BME280;57735;56.264;43.898;2022-11-28T01:52:36;103266.56;;;-5.14;69.52
70323;BME280;57735;56.264;43.898;2022-11-28T01:55:10;103264.84;;;-5.12;69.66
70323;BME280;57735;56.264;43.898;2022-11-28T01:57:44;103260.50;;;-5.13;69.23
70323;BME280;57735;56.264;43.898;2022-11-28T02:00:18;103263.09;;;-5.13;69.19
70323;BME280;57735;56.264;43.898;2022-11-28T02:03:00;103261.41;;;-5.11;69.51
70323;BME280;57735;56.264;43.898;2022-11-28T02:05:36;103274.41;;;-5.11;69.67
70323;BME280;57735;56.264;43.898;2022-11-28T02:08:08;103275.19;;;-5.17;68.96
70323;BME280;57735;56.264;43.898;2022-11-28T02:10:59;103263.81;;;-5.28;69.45
70323;BME280;57735;56.264;43.898;2022-11-28T02:16:55;103275.00;;;-5.37;69.34
70323;BME280;57735;56.264;43.898;2022-11-28T02:19:54;103288.84;;;-5.38;69.74
70323;BME280;57735;56.264;43.898;2022-11-28T02:22:38;103291.44;;;-5.38;69.92
70323;BME280;57735;56.264;43.898;2022-11-28T02:33:51;103288.09;;;-5.26;70.14
70323;BME280;57735;56.264;43.898;2022-11-28T02:38:59;103287.31;;;-5.20;69.75
70323;BME280;57735;56.264;43.898;2022-11-28T02:41:42;103292.44;;;-5.27;69.98
70323;BME280;57735;56.264;43.898;2022-11-28T02:44:17;103293.25;;;-5.31;69.90
70323;BME280;57735;56.264;43.898;2022-11-28T02:46:51;103288.03;;;-5.32;70.25
70323;BME280;57735;56.264;43.898;2022-11-28T02:49:36;103297.59;;;-5.30;70.20
70323;BME280;57735;56.264;43.898;2022-11-28T02:52:13;103294.97;;;-5.30;70.18
70323;BME280;57735;56.264;43.898;2022-11-28T02:54:45;103297.56;;;-5.31;70.39
70323;BME280;57735;56.264;43.898;2022-11-28T02:57:17;103295.84;;;-5.29;70.82
70323;BME280;57735;56.264;43.898;2022-11-28T02:59:49;103295.94;;;-5.24;70.39
70323;BME280;57735;56.264;43.898;2022-11-28T03:02:29;103294.09;;;-5.32;70.23
70323;BME280;57735;56.264;43.898;2022-11-28T03:05:11;103288.94;;;-5.29;70.82
70323;BME280;57735;56.264;43.898;2022-11-28T03:10:50;103292.34;;;-5.33;70.17
70323;BME280;57735;56.264;43.898;2022-11-28T03:19:25;103295.06;;;-5.25;70.55
70323;BME280;57735;56.264;43.898;2022-11-28T03:22:06;103296.78;;;-5.24;70.70
70323;BME280;57735;56.264;43.898;2022-11-28T03:24:46;103296.78;;;-5.24;70.50
70323;BME280;57735;56.264;43.898;2022-11-28T03:27:42;103301.94;;;-5.27;70.66
70323;BME280;57735;56.264;43.898;2022-11-28T03:30:28;103302.81;;;-5.27;70.72
70323;BME280;57735;56.264;43.898;2022-11-28T03:33:02;103297.59;;;-5.30;70.39
70323;BME280;57735;56.264;43.898;2022-11-28T03:35:38;103302.69;;;-5.36;70.59
70323;BME280;57735;56.264;43.898;2022-11-28T03:38:34;103306.16;;;-5.38;70.58
70323;BME280;57735;56.264;43.898;2022-11-28T03:41:13;103303.47;;;-5.44;70.94
70323;BME280;57735;56.264;43.898;2022-11-28T03:43:50;103296.53;;;-5.45;70.96
70323;BME280;57735;56.264;43.898;2022-11-28T03:46:25;103297.44;;;-5.42;71.18
70323;BME280;57735;56.264;43.898;2022-11-28T03:48:58;103307.03;;;-5.38;71.24
70323;BME280;57735;56.264;43.898;2022-11-28T03:51:36;103318.34;;;-5.33;71.07
70323;BME280;57735;56.264;43.898;2022-11-28T03:54:28;103313.13;;;-5.33;70.88
70323;BME280;57735;56.264;43.898;2022-11-28T03:57:23;103308.81;;;-5.32;70.80
70323;BME280;57735;56.264;43.898;2022-11-28T04:00:04;103309.59;;;-5.39;70.71
70323;BME280;57735;56.264;43.898;2022-11-28T04:06:02;103308.66;;;-5.44;71.30
70323;BME280;57735;56.264;43.898;2022-11-28T04:08:39;103311.28;;;-5.43;71.47
70323;BME280;57735;56.264;43.898;2022-11-28T04:11:15;103318.31;;;-5.37;71.49
70323;BME280;57735;56.264;43.898;2022-11-28T04:13:59;103313.97;;;-5.38;71.12
70323;BME280;57735;56.264;43.898;2022-11-28T04:16:39;103326.00;;;-5.43;71.38
70323;BME280;57735;56.264;43.898;2022-11-28T04:19:17;103320.84;;;-5.40;71.56
70323;BME280;57735;56.264;43.898;2022-11-28T04:21:58;103324.31;;;-5.41;71.47
70323;BME280;57735;56.264;43.898;2022-11-28T04:24:35;103312.16;;;-5.42;71.69
70323;BME280;57735;56.264;43.898;2022-11-28T04:27:10;103318.19;;;-5.45;71.70
70323;BME280;57735;56.264;43.898;2022-11-28T04:29:46;103320.81;;;-5.43;71.99
70323;BME280;57735;56.264;43.898;2022-11-28T04:32:20;103319.09;;;-5.41;71.96
70323;BME280;57735;56.264;43.898;2022-11-28T04:34:56;103327.81;;;-5.36;72.04
70323;BME280;57735;56.264;43.898;2022-11-28T04:37:29;103322.63;;;-5.36;71.64
70323;BME280;57735;56.264;43.898;2022-11-28T04:40:03;103322.59;;;-5.39;71.91
70323;BME280;57735;56.264;43.898;2022-11-28T04:42:39;103335.56;;;-5.41;72.04
70323;BME280;57735;56.264;43.898;2022-11-28T04:45:16;103335.50;;;-5.45;71.82
70323;BME280;57735;56.264;43.898;2022-11-28T04:47:47;103340.63;;;-5.50;72.20
70323;BME280;57735;56.264;43.898;2022-11-28T04:50:22;103342.38;;;-5.49;72.29
70323;BME280;57735;56.264;43.898;2022-11-28T04:53:07;103346.69;;;-5.51;72.30
70323;BME280;57735;56.264;43.898;2022-11-28T04:55:47;103343.22;;;-5.51;72.46
70323;BME280;57735;56.264;43.898;2022-11-28T04:58:25;103352.72;;;-5.53;72.31
70323;BME280;57735;56.264;43.898;2022-11-28T05:00:59;103354.47;;;-5.51;72.54
70323;BME280;57735;56.264;43.898;2022-11-28T05:03:31;103355.44;;;-5.44;72.28
70323;BME280;57735;56.264;43.898;2022-11-28T05:06:06;103356.34;;;-5.42;72.74
70323;BME280;57735;56.264;43.898;2022-11-28T05:08:38;103356.31;;;-5.44;72.45
70323;BME280;57735;56.264;43.898;2022-11-28T05:11:09;103356.34;;;-5.42;72.23
70323;BME280;57735;56.264;43.898;2022-11-28T05:13:39;103361.56;;;-5.41;72.48
70323;BME280;57735;56.264;43.898;2022-11-28T05:16:13;103365.03;;;-5.40;72.25
70323;BME280;57735;56.264;43.898;2022-11-28T05:18:47;103364.19;;;-5.39;72.06
70323;BME280;57735;56.264;43.898;2022-11-28T05:21:17;103367.59;;;-5.43;71.71
70323;BME280;57735;56.264;43.898;2022-11-28T05:23:48;103380.53;;;-5.46;71.73
70323;BME280;57735;56.264;43.898;2022-11-28T05:26:20;103364.97;;;-5.45;71.75
70323;BME280;57735;56.264;43.898;2022-11-28T05:28:51;103377.91;;;-5.48;71.22
70323;BME280;57735;56.264;43.898;2022-11-28T05:31:22;103370.00;;;-5.57;71.33
70323;BME280;57735;56.264;43.898;2022-11-28T05:33:54;103374.38;;;-5.53;71.73
70323;BME280;57735;56.264;43.898;2022-11-28T05:36:25;103382.25;;;-5.47;71.44
70323;BME280;57735;56.264;43.898;2022-11-28T05:38:56;103377.13;;;-5.44;71.48
70323;BME280;57735;56.264;43.898;2022-11-28T05:41:30;103384.84;;;-5.47;71.25
70323;BME280;57735;56.264;43.898;2022-11-28T05:44:01;103377.94;;;-5.46;71.76
70323;BME280;57735;56.264;43.898;2022-11-28T05:46:34;103386.63;;;-5.44;71.38
70323;BME280;57735;56.264;43.898;2022-11-28T05:49:05;103384.94;;;-5.42;71.87
70323;BME280;57735;56.264;43.898;2022-11-28T05:51:36;103402.28;;;-5.41;71.20
70323;BME280;57735;56.264;43.898;2022-11-28T05:54:07;103397.81;;;-5.48;71.30
70323;BME280;57735;56.264;43.898;2022-11-28T05:56:41;103391.72;;;-5.50;71.52
70323;BME280;57735;56.264;43.898;2022-11-28T05:59:12;103386.53;;;-5.50;70.93
70323;BME280;57735;56.264;43.898;2022-11-28T06:01:43;103388.31;;;-5.48;70.39
70323;BME280;57735;56.264;43.898;2022-11-28T06:04:17;103381.44;;;-5.44;70.06
70323;BME280;57735;56.264;43.898;2022-11-28T06:06:49;103388.47;;;-5.37;70.26
70323;BME280;57735;56.264;43.898;2022-11-28T06:09:20;103397.09;;;-5.40;70.07
70323;BME280;57735;56.264;43.898;2022-11-28T06:11:51;103403.22;;;-5.35;69.89
70323;BME280;57735;56.264;43.898;2022-11-28T06:14:22;103394.56;;;-5.34;69.99
70323;BME280;57735;56.264;43.898;2022-11-28T06:16:53;103404.13;;;-5.31;70.01
70323;BME280;57735;56.264;43.898;2022-11-28T06:19:24;103392.13;;;-5.23;70.03
70323;BME280;57735;56.264;43.898;2022-11-28T06:21:55;103403.50;;;-5.15;69.70
70323;BME280;57735;56.264;43.898;2022-11-28T06:24:25;103399.25;;;-5.08;69.31
70323;BME280;57735;56.264;43.898;2022-11-28T06:26:56;103400.13;;;-5.09;69.14
70323;BME280;57735;56.264;43.898;2022-11-28T06:29:27;103403.66;;;-5.01;69.60
70323;BME280;57735;56.264;43.898;2022-11-28T06:31:58;103409.88;;;-4.92;68.87
70323;BME280;57735;56.264;43.898;2022-11-28T06:34:31;103412.56;;;-4.84;69.08
70323;BME280;57735;56.264;43.898;2022-11-28T06:37:04;103415.31;;;-4.73;69.36
70323;BME280;57735;56.264;43.898;2022-11-28T06:39:35;103406.66;;;-4.71;68.58
70323;BME280;57735;56.264;43.898;2022-11-28T06:42:09;103404.91;;;-4.72;68.11
70323;BME280;57735;56.264;43.898;2022-11-28T06:44:40;103405.78;;;-4.73;68.12
70323;BME280;57735;56.264;43.898;2022-11-28T06:47:13;103409.28;;;-4.71;68.04
70323;BME280;57735;56.264;43.898;2022-11-28T06:49:44;103410.09;;;-4.75;67.66
70323;BME280;57735;56.264;43.898;2022-11-28T06:52:17;103410.06;;;-4.76;67.96
70323;BME280;57735;56.264;43.898;2022-11-28T06:54:48;103411.88;;;-4.71;68.19
70323;BME280;57735;56.264;43.898;2022-11-28T06:57:21;103414.53;;;-4.63;68.15
70323;BME280;57735;56.264;43.898;2022-11-28T06:59:54;103418.03;;;-4.63;67.97
70323;BME280;57735;56.264;43.898;2022-11-28T07:02:25;103420.53;;;-4.69;68.18
70323;BME280;57735;56.264;43.898;2022-11-28T07:04:56;103421.47;;;-4.64;68.29
70323;BME280;57735;56.264;43.898;2022-11-28T07:07:27;103422.47;;;-4.55;68.12
70323;BME280;57735;56.264;43.898;2022-11-28T07:09:58;103412.94;;;-4.53;67.55
70323;BME280;57735;56.264;43.898;2022-11-28T07:12:29;103410.31;;;-4.52;67.66
70323;BME280;57735;56.264;43.898;2022-11-28T07:15:05;103411.25;;;-4.47;67.90
70323;BME280;57735;56.264;43.898;2022-11-28T07:17:36;103408.69;;;-4.44;67.49
70323;BME280;57735;56.264;43.898;2022-11-28T07:20:07;103416.59;;;-4.36;67.41
70323;BME280;57735;56.264;43.898;2022-11-28T07:22:38;103417.53;;;-4.28;67.15
70323;BME280;57735;56.264;43.898;2022-11-28T07:25:12;103410.66;;;-4.23;67.13
70323;BME280;57735;56.264;43.898;2022-11-28T07:27:46;103403.72;;;-4.18;67.29
70323;BME280;57735;56.264;43.898;2022-11-28T07:30:17;103403.81;;;-4.10;67.51
70323;BME280;57735;56.264;43.898;2022-11-28T07:32:49;103412.53;;;-4.07;67.16
70323;BME280;57735;56.264;43.898;2022-11-28T07:35:20;103405.63;;;-4.03;67.14
70323;BME280;57735;56.264;43.898;2022-11-28T07:37:51;103404.69;;;-4.10;66.81
70323;BME280;57735;56.264;43.898;2022-11-28T07:40:22;103406.41;;;-4.12;67.17
70323;BME280;57735;56.264;43.898;2022-11-28T07:42:52;103415.94;;;-4.12;67.02
70323;BME280;57735;56.264;43.898;2022-11-28T07:45:23;103408.16;;;-4.11;67.72
70323;BME280;57735;56.264;43.898;2022-11-28T07:47:57;103405.63;;;-4.03;67.70
70323;BME280;57735;56.264;43.898;2022-11-28T07:50:28;103402.16;;;-3.99;67.19
70323;BME280;57735;56.264;43.898;2022-11-28T07:52:59;103409.97;;;-4.01;66.90
70323;BME280;57735;56.264;43.898;2022-11-28T07:55:30;103406.53;;;-3.95;67.17
70323;BME280;57735;56.264;43.898;2022-11-28T07:58:02;103404.84;;;-3.92;66.81
70323;BME280;57735;56.264;43.898;2022-11-28T08:00:33;103393.63;;;-3.86;67.14
70323;BME280;57735;56.264;43.898;2022-11-28T08:03:03;103402.31;;;-3.82;66.97
70323;BME280;57735;56.264;43.898;2022-11-28T08:05:34;103399.78;;;-3.72;67.22
70323;BME280;57735;56.264;43.898;2022-11-28T08:08:05;103403.34;;;-3.62;66.96
70323;BME280;57735;56.264;43.898;2022-11-28T08:10:36;103411.97;;;-3.69;66.37
70323;BME280;57735;56.264;43.898;2022-11-28T08:13:11;103413.69;;;-3.74;66.83
70323;BME280;57735;56.264;43.898;2022-11-28T08:15:42;103411.97;;;-3.72;66.42
70323;BME280;57735;56.264;43.898;2022-11-28T08:18:13;103411.09;;;-3.73;65.98
70323;BME280;57735;56.264;43.898;2022-11-28T08:20:44;103409.31;;;-3.77;66.17
70323;BME280;57735;56.264;43.898;2022-11-28T08:23:16;103409.22;;;-3.84;66.00
70323;BME280;57735;56.264;43.898;2022-11-28T08:25:48;103408.38;;;-3.82;66.33
70323;BME280;57735;56.264;43.898;2022-11-28T08:28:18;103407.50;;;-3.89;65.74
70323;BME280;57735;56.264;43.898;2022-11-28T08:30:49;103409.16;;;-3.94;65.95
70323;BME280;57735;56.264;43.898;2022-11-28T08:33:22;103414.44;;;-3.88;66.05
70323;BME280;57735;56.264;43.898;2022-11-28T08:35:54;103416.16;;;-3.90;66.13
70323;BME280;57735;56.264;43.898;2022-11-28T08:38:24;103414.44;;;-3.88;66.61
70323;BME280;57735;56.264;43.898;2022-11-28T08:41:11;103426.59;;;-3.88;66.45
70323;BME280;57735;56.264;43.898;2022-11-28T08:43:52;103420.56;;;-3.79;66.83
70323;BME280;57735;56.264;43.898;2022-11-28T08:46:23;103432.00;;;-3.64;66.87
70323;BME280;57735;56.264;43.898;2022-11-28T08:48:54;103427.66;;;-3.62;66.16
70323;BME280;57735;56.264;43.898;2022-11-28T08:51:26;103422.44;;;-3.63;65.76
70323;BME280;57735;56.264;43.898;2022-11-28T08:53:56;103415.50;;;-3.61;66.25
70323;BME280;57735;56.264;43.898;2022-11-28T08:56:27;103423.34;;;-3.58;66.23
70323;BME280;57735;56.264;43.898;2022-11-28T08:58:58;103418.19;;;-3.54;66.13
70323;BME280;57735;56.264;43.898;2022-11-28T09:01:31;103417.31;;;-3.48;66.49
70323;BME280;57735;56.264;43.898;2022-11-28T09:04:05;103421.66;;;-3.48;65.83
70323;BME280;57735;56.264;43.898;2022-11-28T09:06:42;103421.69;;;-3.47;66.22
70323;BME280;57735;56.264;43.898;2022-11-28T09:09:13;103427.75;;;-3.49;66.11
70323;BME280;57735;56.264;43.898;2022-11-28T09:11:44;103424.22;;;-3.59;65.98
70323;BME280;57735;56.264;43.898;2022-11-28T09:14:16;103429.41;;;-3.61;66.83
70323;BME280;57735;56.264;43.898;2022-11-28T09:16:49;103436.44;;;-3.54;66.62
70323;BME280;57735;56.264;43.898;2022-11-28T09:19:20;103419.91;;;-3.56;65.71
70323;BME280;57735;56.264;43.898;2022-11-28T09:21:53;103419.84;;;-3.63;65.88
70323;BME280;57735;56.264;43.898;2022-11-28T09:24:23;103425.88;;;-3.66;66.30
70323;BME280;57735;56.264;43.898;2022-11-28T09:26:54;103430.28;;;-3.60;66.33
70323;BME280;57735;56.264;43.898;2022-11-28T09:29:25;103429.47;;;-3.53;66.83
70323;BME280;57735;56.264;43.898;2022-11-28T09:32:00;103424.25;;;-3.56;66.05
70323;BME280;57735;56.264;43.898;2022-11-28T09:34:30;103431.97;;;-3.65;66.14
70323;BME280;57735;56.264;43.898;2022-11-28T09:37:01;103431.09;;;-3.70;66.03
70323;BME280;57735;56.264;43.898;2022-11-28T09:39:32;103424.97;;;-3.74;66.06
70323;BME280;57735;56.264;43.898;2022-11-28T09:42:39;103430.22;;;-3.69;66.36
70323;BME280;57735;56.264;43.898;2022-11-28T09:45:20;103427.59;;;-3.72;66.79
70323;BME280;57735;56.264;43.898;2022-11-28T09:47:55;103428.44;;;-3.75;66.56
70323;BME280;57735;56.264;43.898;2022-11-28T09:50:32;103430.19;;;-3.74;66.46
70323;BME280;57735;56.264;43.898;2022-11-28T09:53:38;103425.78;;;-3.79;66.65
70323;BME280;57735;56.264;43.898;2022-11-28T09:56:15;103426.59;;;-3.85;66.73
70323;BME280;57735;56.264;43.898;2022-11-28T09:58:54;103435.28;;;-3.84;67.14
70323;BME280;57735;56.264;43.898;2022-11-28T10:02:03;103429.22;;;-3.83;67.34
70323;BME280;57735;56.264;43.898;2022-11-28T10:04:59;103429.25;;;-3.79;67.79
70323;BME280;57735;56.264;43.898;2022-11-28T10:11:21;103417.19;;;-3.66;67.66
70323;BME280;57735;56.264;43.898;2022-11-28T10:14:23;103415.53;;;-3.60;67.94
70323;BME280;57735;56.264;43.898;2022-11-28T10:17:12;103422.47;;;-3.60;67.68
70323;BME280;57735;56.264;43.898;2022-11-28T10:19:59;103427.69;;;-3.60;67.77
70323;BME280;57735;56.264;43.898;2022-11-28T10:22:56;103422.41;;;-3.66;67.93
70323;BME280;57735;56.264;43.898;2022-11-28T10:25:39;103422.41;;;-3.66;68.00
70323;BME280;57735;56.264;43.898;2022-11-28T10:28:16;103413.69;;;-3.71;67.94
70323;BME280;57735;56.264;43.898;2022-11-28T10:31:12;103431.97;;;-3.67;67.62
70323;BME280;57735;56.264;43.898;2022-11-28T10:34:15;103419.81;;;-3.66;67.24
70323;BME280;57735;56.264;43.898;2022-11-28T10:39:53;103417.16;;;-3.72;67.07
70323;BME280;57735;56.264;43.898;2022-11-28T10:43:05;103414.50;;;-3.80;66.56
70323;BME280;57735;56.264;43.898;2022-11-28T10:57:45;103419.44;;;-4.10;66.58
70323;BME280;57735;56.264;43.898;2022-11-28T11:00:19;103403.00;;;-4.06;66.80
70323;BME280;57735;56.264;43.898;2022-11-28T11:02:54;103414.31;;;-4.03;66.79
70323;BME280;57735;56.264;43.898;2022-11-28T11:05:31;103401.25;;;-4.07;66.38
70323;BME280;57735;56.264;43.898;2022-11-28T11:08:03;103402.94;;;-4.11;66.47
70323;BME280;57735;56.264;43.898;2022-11-28T11:10:41;103401.16;;;-4.15;66.90
70323;BME280;57735;56.264;43.898;2022-11-28T11:13:54;103408.16;;;-4.11;67.13
70323;BME280;57735;56.264;43.898;2022-11-28T11:16:10;103410.78;;;-4.08;67.03
70323;BME280;57735;56.264;43.898;2022-11-28T11:21:27;103397.72;;;-4.11;67.17
70323;BME280;57735;56.264;43.898;2022-11-28T11:24:17;103403.00;;;-4.06;67.05
70323;BME280;57735;56.264;43.898;2022-11-28T11:26:50;103409.94;;;-4.07;67.12
70323;BME280;57735;56.264;43.898;2022-11-28T11:31:59;103413.41;;;-4.08;67.16
70323;BME280;57735;56.264;43.898;2022-11-28T11:34:41;103403.88;;;-4.01;67.58
70323;BME280;57735;56.264;43.898;2022-11-28T11:39:51;103406.38;;;-4.15;66.24
70323;BME280;57735;56.264;43.898;2022-11-28T11:42:25;103415.84;;;-4.25;66.33
70323;BME280;57735;56.264;43.898;2022-11-28T11:45:24;103411.34;;;-4.39;66.19
70323;BME280;57735;56.264;43.898;2022-11-28T11:47:58;103407.81;;;-4.44;67.01
70323;BME280;57735;56.264;43.898;2022-11-28T11:50:30;103413.94;;;-4.41;67.06
70323;BME280;57735;56.264;43.898;2022-11-28T11:53:05;103423.47;;;-4.41;67.47
70323;BME280;57735;56.264;43.898;2022-11-28T11:55:47;103427.78;;;-4.43;66.87
70323;BME280;57735;56.264;43.898;2022-11-28T11:58:35;103424.28;;;-4.45;67.32
70323;BME280;57735;56.264;43.898;2022-11-28T12:01:14;103422.53;;;-4.46;67.16
70323;BME280;57735;56.264;43.898;2022-11-28T12:03:58;103427.69;;;-4.52;67.16
70323;BME280;57735;56.264;43.898;2022-11-28T12:06:40;103426.75;;;-4.59;67.50
70323;BME280;57735;56.264;43.898;2022-11-28T12:09:29;103423.22;;;-4.63;67.29
70323;BME280;57735;56.264;43.898;2022-11-28T12:14:42;103422.19;;;-4.77;67.38
70323;BME280;57735;56.264;43.898;2022-11-28T12:20:33;103436.81;;;-4.85;67.95
70323;BME280;57735;56.264;43.898;2022-11-28T12:23:39;103446.34;;;-4.85;67.77
70323;BME280;57735;56.264;43.898;2022-11-28T12:38:23;103445.78;;;-5.28;67.33
70323;BME280;57735;56.264;43.898;2022-11-28T12:46:27;103450.59;;;-5.54;68.13
70323;BME280;57735;56.264;43.898;2022-11-28T12:55:19;103460.91;;;-5.58;68.61
70323;BME280;57735;56.264;43.898;2022-11-28T12:58:12;103450.50;;;-5.60;68.94
70323;BME280;57735;56.264;43.898;2022-11-28T13:03:53;103453.88;;;-5.64;68.80
70323;BME280;57735;56.264;43.898;2022-11-28T13:09:02;103459.13;;;-5.61;68.94
70323;BME280;57735;56.264;43.898;2022-11-28T13:20:12;103454.69;;;-5.68;68.86
70323;BME280;57735;56.264;43.898;2022-11-28T13:33:55;103460.09;;;-5.56;68.58
70323;BME280;57735;56.264;43.898;2022-11-28T13:36:49;103464.41;;;-5.56;68.83
70323;BME280;57735;56.264;43.898;2022-11-28T13:45:36;103464.31;;;-5.63;68.41
70323;BME280;57735;56.264;43.898;2022-11-28T13:53:44;103464.78;;;-5.89;68.49
70323;BME280;57735;56.264;43.898;2022-11-28T13:56:25;103468.19;;;-5.92;68.92
70323;BME280;57735;56.264;43.898;2022-11-28T13:58:59;103471.53;;;-5.97;68.49
70323;BME280;57735;56.264;43.898;2022-11-28T14:01:59;103467.97;;;-6.03;68.61
70323;BME280;57735;56.264;43.898;2022-11-28T14:04:31;103470.50;;;-6.07;68.77
70323;BME280;57735;56.264;43.898;2022-11-28T14:07:05;103482.47;;;-6.15;69.08
70323;BME280;57735;56.264;43.898;2022-11-28T14:09:54;103485.91;;;-6.16;69.07
70323;BME280;57735;56.264;43.898;2022-11-28T14:13:06;103490.22;;;-6.17;69.57
70323;BME280;57735;56.264;43.898;2022-11-28T14:15:59;103491.97;;;-6.16;69.16
70323;BME280;57735;56.264;43.898;2022-11-28T14:18:35;103490.22;;;-6.17;69.01
70323;BME280;57735;56.264;43.898;2022-11-28T14:21:42;103485.84;;;-6.21;69.11
70323;BME280;57735;56.264;43.898;2022-11-28T14:27:01;103487.38;;;-6.30;69.03
70323;BME280;57735;56.264;43.898;2022-11-28T14:29:37;103486.34;;;-6.39;69.76
70323;BME280;57735;56.264;43.898;2022-11-28T14:32:29;103495.72;;;-6.45;69.82
70323;BME280;57735;56.264;43.898;2022-11-28T14:35:04;103487.78;;;-6.54;70.56
70323;BME280;57735;56.264;43.898;2022-11-28T14:37:47;103494.50;;;-6.62;70.80
70323;BME280;57735;56.264;43.898;2022-11-28T14:43:33;103496.75;;;-6.79;70.50
70323;BME280;57735;56.264;43.898;2022-11-28T14:54:21;103493.63;;;-7.02;70.95
70323;BME280;57735;56.264;43.898;2022-11-28T14:56:53;103485.81;;;-7.04;70.94
70323;BME280;57735;56.264;43.898;2022-11-28T14:59:27;103491.00;;;-7.04;70.75
70323;BME280;57735;56.264;43.898;2022-11-28T15:16:12;103499.03;;;-7.30;71.59
70323;BME280;57735;56.264;43.898;2022-11-28T15:18:48;103499.81;;;-7.34;71.82
70323;BME280;57735;56.264;43.898;2022-11-28T15:21:21;103499.00;;;-7.32;71.93
70323;BME280;57735;56.264;43.898;2022-11-28T15:23:54;103491.28;;;-7.30;71.63
70323;BME280;57735;56.264;43.898;2022-11-28T15:26:28;103497.31;;;-7.30;71.39
70323;BME280;57735;56.264;43.898;2022-11-28T15:29:19;103491.19;;;-7.33;71.51
70323;BME280;57735;56.264;43.898;2022-11-28T15:31:55;103487.63;;;-7.38;71.28
70323;BME280;57735;56.264;43.898;2022-11-28T15:34:29;103501.34;;;-7.43;71.56
70323;BME280;57735;56.264;43.898;2022-11-28T15:37:03;103490.03;;;-7.46;71.70
70323;BME280;57735;56.264;43.898;2022-11-28T15:39:39;103494.25;;;-7.50;71.39
70323;BME280;57735;56.264;43.898;2022-11-28T15:42:37;103493.25;;;-7.56;71.89
70323;BME280;57735;56.264;43.898;2022-11-28T15:47:53;103489.00;;;-7.53;71.82
70323;BME280;57735;56.264;43.898;2022-11-28T15:50:29;103481.13;;;-7.57;71.81
70323;BME280;57735;56.264;43.898;2022-11-28T15:53:17;103488.75;;;-7.63;72.11
70323;BME280;57735;56.264;43.898;2022-11-28T15:56:05;103488.69;;;-7.65;72.18
70323;BME280;57735;56.264;43.898;2022-11-28T15:58:36;103485.19;;;-7.67;72.53
70323;BME280;57735;56.264;43.898;2022-11-28T16:01:23;103490.47;;;-7.64;72.39
70323;BME280;57735;56.264;43.898;2022-11-28T16:04:13;103479.94;;;-7.70;72.00